TAP554 LPPT-EDDM
Flight info
| Callsign | TAP554 |
|---|---|
| Flight time | 2h 31m |
| Altitude | 39000 |
| Route | IXIDA DCT RIVRO DCT TOSDI DCT ZMR DCT NEA DCT DGO DCT LPA DCT GOSVI DCT TOPTU DCT TOU DCT GAI DCT MEN DCT NINUN DCT LATAM DCT ETREK DCT LTP DCT SOPLO DCT OMASI DCT KINNI DCT LAMUR DCT KORED DCT NUNRI T103 BETOS BETOS1B |
| Aircraft | A339/H-SADE1E2E3GHIJ3J5M1P2RWXY/LB2D1 |
Departure
| Time | 2026-05-07 16:59 |
|---|---|
| Airport | Lisbon Humberto Delgado Airport (LPPT) |
Arrival
| Time | 2026-05-07 19:30 |
|---|---|
| Airport | Munich Airport (EDDM) |
| Time | Latitude | Longitude | Altitude | Speed | Heading |
|---|---|---|---|---|---|
| 2026-05-07 16:35 | 38.76841 | -9.13938 | 353 ft | 0 kts | 257° |
| 2026-05-07 16:51 | 38.76841 | -9.13934 | 362 ft | 1 kts | 257° |
| 2026-05-07 16:51 | 38.76842 | -9.13927 | 362 ft | 0 kts | 257° |
| 2026-05-07 16:51 | 38.76845 | -9.13915 | 355 ft | 2 kts | 257° |
| 2026-05-07 16:51 | 38.76848 | -9.13897 | 360 ft | 2 kts | 257° |
| 2026-05-07 16:52 | 38.76851 | -9.13876 | 358 ft | 2 kts | 254° |
| 2026-05-07 16:52 | 38.76856 | -9.13855 | 353 ft | 2 kts | 246° |
| 2026-05-07 16:52 | 38.76858 | -9.13862 | 353 ft | 0 kts | 263° |
| 2026-05-07 16:52 | 38.76858 | -9.13859 | 353 ft | 2 kts | 262° |
| 2026-05-07 16:53 | 38.76859 | -9.13844 | 362 ft | 2 kts | 246° |
| 2026-05-07 16:53 | 38.76863 | -9.13830 | 362 ft | 2 kts | 224° |
| 2026-05-07 16:53 | 38.76863 | -9.13827 | 362 ft | 1 kts | 212° |
| 2026-05-07 16:53 | 38.76842 | -9.13830 | 360 ft | 3 kts | 181° |
| 2026-05-07 16:54 | 38.76835 | -9.13828 | 359 ft | 0 kts | 173° |
| 2026-05-07 16:55 | 38.76744 | -9.13803 | 353 ft | 17 kts | 167° |
| 2026-05-07 16:55 | 38.76635 | -9.13782 | 361 ft | 13 kts | 188° |
| 2026-05-07 16:55 | 38.76591 | -9.13872 | 353 ft | 12 kts | 256° |
| 2026-05-07 16:55 | 38.76570 | -9.13977 | 361 ft | 11 kts | 252° |
| 2026-05-07 16:56 | 38.76528 | -9.14060 | 359 ft | 12 kts | 234° |
| 2026-05-07 16:56 | 38.76498 | -9.14158 | 359 ft | 12 kts | 266° |
| 2026-05-07 16:56 | 38.76526 | -9.14264 | 353 ft | 0 kts | 291° |
| 2026-05-07 16:57 | 38.76531 | -9.14283 | 359 ft | 15 kts | 291° |
| 2026-05-07 16:57 | 38.76623 | -9.14392 | 349 ft | 18 kts | 4° |
| 2026-05-07 16:58 | 38.76659 | -9.14378 | 351 ft | 1 kts | 19° |
| 2026-05-07 16:58 | 38.76842 | -9.14281 | 357 ft | 73 kts | 22° |
| 2026-05-07 16:58 | 38.77589 | -9.13876 | 360 ft | 155 kts | 23° |
| 2026-05-07 16:58 | 38.78737 | -9.13248 | 526 ft | 201 kts | 18° |
| 2026-05-07 16:59 | 38.80106 | -9.12500 | 1116 ft | 225 kts | 19° |
| 2026-05-07 16:59 | 38.81541 | -9.11618 | 2069 ft | 224 kts | 24° |
| 2026-05-07 16:59 | 38.82928 | -9.10645 | 2942 ft | 233 kts | 26° |
| 2026-05-07 16:59 | 38.84397 | -9.09545 | 3309 ft | 256 kts | 27° |
| 2026-05-07 17:00 | 38.85982 | -9.08331 | 3740 ft | 270 kts | 28° |
| 2026-05-07 17:00 | 38.87604 | -9.07072 | 4409 ft | 276 kts | 30° |
| 2026-05-07 17:00 | 38.89270 | -9.05769 | 5041 ft | 283 kts | 33° |
| 2026-05-07 17:00 | 38.90809 | -9.04183 | 5767 ft | 284 kts | 44° |
| 2026-05-07 17:01 | 38.92264 | -9.02451 | 6554 ft | 286 kts | 45° |
| 2026-05-07 17:01 | 38.93741 | -9.00700 | 7239 ft | 291 kts | 45° |
| 2026-05-07 17:01 | 38.95241 | -8.98931 | 7983 ft | 295 kts | 44° |
| 2026-05-07 17:01 | 38.96767 | -8.97148 | 8717 ft | 298 kts | 44° |
| 2026-05-07 17:02 | 38.98315 | -8.95343 | 9418 ft | 303 kts | 44° |
| 2026-05-07 17:02 | 38.99885 | -8.93511 | 10131 ft | 307 kts | 44° |
| 2026-05-07 17:02 | 39.01515 | -8.91606 | 10387 ft | 327 kts | 44° |
| 2026-05-07 17:02 | 39.03250 | -8.89577 | 10594 ft | 347 kts | 44° |
| 2026-05-07 17:03 | 39.05043 | -8.87479 | 11029 ft | 356 kts | 44° |
| 2026-05-07 17:03 | 39.06883 | -8.85330 | 11706 ft | 358 kts | 44° |
| 2026-05-07 17:03 | 39.08736 | -8.83161 | 12340 ft | 362 kts | 44° |
| 2026-05-07 17:03 | 39.10613 | -8.80963 | 13000 ft | 365 kts | 44° |
| 2026-05-07 17:04 | 39.12496 | -8.78753 | 13660 ft | 368 kts | 44° |
| 2026-05-07 17:04 | 39.14401 | -8.76515 | 14203 ft | 372 kts | 44° |
| 2026-05-07 17:04 | 39.16322 | -8.74256 | 14748 ft | 375 kts | 44° |
| 2026-05-07 17:04 | 39.18118 | -8.71793 | 15244 ft | 379 kts | 50° |
| 2026-05-07 17:05 | 39.19856 | -8.69212 | 15780 ft | 383 kts | 50° |
| 2026-05-07 17:05 | 39.21620 | -8.66616 | 16335 ft | 387 kts | 50° |
| 2026-05-07 17:05 | 39.23403 | -8.64000 | 16882 ft | 390 kts | 49° |
| 2026-05-07 17:05 | 39.25208 | -8.61354 | 17417 ft | 394 kts | 49° |
| 2026-05-07 17:06 | 39.27027 | -8.58688 | 17939 ft | 398 kts | 49° |
| 2026-05-07 17:06 | 39.28860 | -8.55995 | 18458 ft | 401 kts | 49° |
| 2026-05-07 17:06 | 39.30707 | -8.53280 | 18919 ft | 405 kts | 49° |
| 2026-05-07 17:06 | 39.32567 | -8.50543 | 19398 ft | 408 kts | 49° |
| 2026-05-07 17:07 | 39.34427 | -8.47805 | 19865 ft | 412 kts | 49° |
| 2026-05-07 17:07 | 39.36323 | -8.45011 | 20348 ft | 415 kts | 49° |
| 2026-05-07 17:07 | 39.38239 | -8.42186 | 20777 ft | 420 kts | 49° |
| 2026-05-07 17:07 | 39.40170 | -8.39334 | 21282 ft | 423 kts | 49° |
| 2026-05-07 17:08 | 39.42117 | -8.36457 | 21775 ft | 427 kts | 49° |
| 2026-05-07 17:08 | 39.44080 | -8.33553 | 22274 ft | 430 kts | 48° |
| 2026-05-07 17:08 | 39.46056 | -8.30626 | 22768 ft | 434 kts | 48° |
| 2026-05-07 17:08 | 39.48046 | -8.27677 | 23263 ft | 437 kts | 48° |
| 2026-05-07 17:09 | 39.50054 | -8.24699 | 23681 ft | 441 kts | 48° |
| 2026-05-07 17:09 | 39.52072 | -8.21703 | 23844 ft | 441 kts | 48° |
| 2026-05-07 17:09 | 39.54087 | -8.18708 | 23885 ft | 441 kts | 48° |
| 2026-05-07 17:09 | 39.56111 | -8.15707 | 24137 ft | 443 kts | 47° |
| 2026-05-07 17:10 | 39.58287 | -8.12886 | 24627 ft | 443 kts | 43° |
| 2026-05-07 17:10 | 39.60492 | -8.10084 | 25038 ft | 446 kts | 43° |
| 2026-05-07 17:10 | 39.62718 | -8.07254 | 25466 ft | 449 kts | 42° |
| 2026-05-07 17:10 | 39.64956 | -8.04408 | 25881 ft | 452 kts | 42° |
| 2026-05-07 17:11 | 39.67208 | -8.01545 | 26272 ft | 456 kts | 42° |
| 2026-05-07 17:11 | 39.69477 | -7.98658 | 26678 ft | 458 kts | 42° |
| 2026-05-07 17:11 | 39.71761 | -7.95749 | 27087 ft | 461 kts | 41° |
| 2026-05-07 17:11 | 39.74060 | -7.92816 | 27471 ft | 464 kts | 41° |
| 2026-05-07 17:12 | 39.76369 | -7.89869 | 27848 ft | 467 kts | 41° |
| 2026-05-07 17:12 | 39.78695 | -7.86898 | 28202 ft | 471 kts | 41° |
| 2026-05-07 17:12 | 39.81043 | -7.83896 | 28551 ft | 474 kts | 41° |
| 2026-05-07 17:12 | 39.83402 | -7.80875 | 28938 ft | 477 kts | 41° |
| 2026-05-07 17:13 | 39.85773 | -7.77834 | 29287 ft | 480 kts | 41° |
| 2026-05-07 17:13 | 39.88166 | -7.74766 | 29628 ft | 483 kts | 41° |
| 2026-05-07 17:13 | 39.90569 | -7.71680 | 29937 ft | 487 kts | 41° |
| 2026-05-07 17:13 | 39.92988 | -7.68572 | 30252 ft | 490 kts | 41° |
| 2026-05-07 17:14 | 39.95416 | -7.65447 | 30610 ft | 491 kts | 41° |
| 2026-05-07 17:14 | 39.97852 | -7.62310 | 30958 ft | 494 kts | 40° |
| 2026-05-07 17:14 | 40.00305 | -7.59147 | 31296 ft | 496 kts | 40° |
| 2026-05-07 17:14 | 40.02732 | -7.56012 | 31632 ft | 499 kts | 40° |
| 2026-05-07 17:15 | 40.05201 | -7.52820 | 31951 ft | 501 kts | 40° |
| 2026-05-07 17:15 | 40.07681 | -7.49610 | 32263 ft | 503 kts | 40° |
| 2026-05-07 17:15 | 40.10173 | -7.46384 | 32504 ft | 505 kts | 40° |
| 2026-05-07 17:15 | 40.12669 | -7.43148 | 32773 ft | 506 kts | 40° |
| 2026-05-07 17:16 | 40.15175 | -7.39895 | 33005 ft | 508 kts | 40° |
| 2026-05-07 17:16 | 40.17684 | -7.36635 | 33200 ft | 510 kts | 40° |
| 2026-05-07 17:16 | 40.20203 | -7.33358 | 33403 ft | 511 kts | 40° |
| 2026-05-07 17:16 | 40.22720 | -7.30078 | 33633 ft | 511 kts | 40° |
| 2026-05-07 17:17 | 40.25238 | -7.26794 | 33856 ft | 511 kts | 40° |
| 2026-05-07 17:17 | 40.27750 | -7.23514 | 34070 ft | 510 kts | 40° |
| 2026-05-07 17:17 | 40.30267 | -7.20226 | 34292 ft | 510 kts | 40° |
| 2026-05-07 17:17 | 40.32774 | -7.16947 | 34526 ft | 509 kts | 40° |
| 2026-05-07 17:18 | 40.35280 | -7.13666 | 34711 ft | 509 kts | 40° |
| 2026-05-07 17:18 | 40.37780 | -7.10388 | 34933 ft | 509 kts | 40° |
| 2026-05-07 17:18 | 40.40282 | -7.07102 | 35154 ft | 508 kts | 40° |
| 2026-05-07 17:18 | 40.42779 | -7.03821 | 35364 ft | 507 kts | 40° |
| 2026-05-07 17:19 | 40.45270 | -7.00543 | 35594 ft | 507 kts | 40° |
| 2026-05-07 17:19 | 40.47759 | -6.97266 | 35796 ft | 506 kts | 40° |
| 2026-05-07 17:19 | 40.50238 | -6.93999 | 36011 ft | 506 kts | 40° |
| 2026-05-07 17:19 | 40.52720 | -6.90722 | 36236 ft | 505 kts | 40° |
| 2026-05-07 17:20 | 40.55197 | -6.87449 | 36441 ft | 504 kts | 40° |
| 2026-05-07 17:20 | 40.57671 | -6.84177 | 36642 ft | 504 kts | 40° |
| 2026-05-07 17:20 | 40.60139 | -6.80910 | 36860 ft | 503 kts | 40° |
| 2026-05-07 17:20 | 40.62604 | -6.77642 | 37069 ft | 502 kts | 40° |
| 2026-05-07 17:21 | 40.65035 | -6.74416 | 37266 ft | 502 kts | 40° |
| 2026-05-07 17:21 | 40.67491 | -6.71152 | 37457 ft | 502 kts | 40° |
| 2026-05-07 17:21 | 40.69945 | -6.67890 | 37647 ft | 501 kts | 40° |
| 2026-05-07 17:21 | 40.72401 | -6.64622 | 37843 ft | 501 kts | 40° |
| 2026-05-07 17:22 | 40.77300 | -6.58091 | 37851 ft | 500 kts | 40° |
| 2026-05-07 17:22 | 40.82191 | -6.51551 | 37858 ft | 500 kts | 40° |
| 2026-05-07 17:23 | 40.87079 | -6.45004 | 37867 ft | 501 kts | 40° |
| 2026-05-07 17:23 | 40.91962 | -6.38448 | 37841 ft | 501 kts | 40° |
| 2026-05-07 17:24 | 40.96847 | -6.31876 | 37854 ft | 501 kts | 40° |
| 2026-05-07 17:24 | 41.01783 | -6.25377 | 37866 ft | 499 kts | 37° |
| 2026-05-07 17:25 | 41.06997 | -6.19311 | 37863 ft | 498 kts | 36° |
| 2026-05-07 17:25 | 41.12163 | -6.13258 | 37867 ft | 499 kts | 37° |
| 2026-05-07 17:26 | 41.17327 | -6.07096 | 37870 ft | 499 kts | 37° |
| 2026-05-07 17:26 | 41.22485 | -6.00905 | 37870 ft | 499 kts | 37° |
| 2026-05-07 17:27 | 41.27634 | -5.94711 | 37871 ft | 499 kts | 37° |
| 2026-05-07 17:27 | 41.32777 | -5.88512 | 37874 ft | 499 kts | 37° |
| 2026-05-07 17:28 | 41.37912 | -5.82310 | 37877 ft | 498 kts | 37° |
| 2026-05-07 17:28 | 41.43036 | -5.76106 | 37878 ft | 497 kts | 37° |
| 2026-05-07 17:29 | 41.48152 | -5.69899 | 37878 ft | 496 kts | 37° |
| 2026-05-07 17:29 | 41.52844 | -5.63081 | 37880 ft | 505 kts | 51° |
| 2026-05-07 17:30 | 41.56111 | -5.54738 | 37883 ft | 510 kts | 63° |
| 2026-05-07 17:30 | 41.58971 | -5.46075 | 37887 ft | 509 kts | 63° |
| 2026-05-07 17:31 | 41.61844 | -5.37434 | 37887 ft | 508 kts | 63° |
| 2026-05-07 17:31 | 41.64699 | -5.28804 | 37898 ft | 507 kts | 63° |
| 2026-05-07 17:32 | 41.67520 | -5.20243 | 37900 ft | 506 kts | 63° |
| 2026-05-07 17:32 | 41.69888 | -5.13035 | 37901 ft | 505 kts | 63° |
| 2026-05-07 17:33 | 41.73161 | -5.03040 | 37908 ft | 504 kts | 63° |
| 2026-05-07 17:33 | 41.75965 | -4.94447 | 37912 ft | 503 kts | 63° |
| 2026-05-07 17:34 | 41.78761 | -4.85855 | 37916 ft | 503 kts | 64° |
| 2026-05-07 17:34 | 41.81546 | -4.77265 | 37912 ft | 502 kts | 64° |
| 2026-05-07 17:35 | 41.84321 | -4.68682 | 37917 ft | 502 kts | 64° |
| 2026-05-07 17:35 | 41.86624 | -4.61536 | 37910 ft | 501 kts | 64° |
| 2026-05-07 17:36 | 41.89391 | -4.52928 | 37913 ft | 502 kts | 64° |
| 2026-05-07 17:36 | 41.92146 | -4.44329 | 37922 ft | 502 kts | 64° |
| 2026-05-07 17:37 | 41.94895 | -4.35721 | 37921 ft | 501 kts | 65° |
| 2026-05-07 17:37 | 41.97643 | -4.27092 | 37927 ft | 502 kts | 65° |
| 2026-05-07 17:38 | 42.00380 | -4.18467 | 37925 ft | 501 kts | 65° |
| 2026-05-07 17:38 | 42.03115 | -4.09830 | 37921 ft | 501 kts | 65° |
| 2026-05-07 17:39 | 42.06055 | -4.01398 | 37929 ft | 500 kts | 62° |
| 2026-05-07 17:39 | 42.09095 | -3.92959 | 37927 ft | 500 kts | 63° |
| 2026-05-07 17:40 | 42.12089 | -3.84492 | 37933 ft | 500 kts | 63° |
| 2026-05-07 17:40 | 42.15059 | -3.76014 | 37936 ft | 500 kts | 63° |
| 2026-05-07 17:41 | 42.18027 | -3.67514 | 37935 ft | 501 kts | 63° |
| 2026-05-07 17:41 | 42.20988 | -3.59010 | 37942 ft | 501 kts | 63° |
| 2026-05-07 17:42 | 42.23928 | -3.50544 | 37938 ft | 501 kts | 64° |
| 2026-05-07 17:42 | 42.26883 | -3.42008 | 37942 ft | 502 kts | 64° |
| 2026-05-07 17:43 | 42.29835 | -3.33452 | 37937 ft | 502 kts | 64° |
| 2026-05-07 17:43 | 42.32782 | -3.24886 | 37939 ft | 503 kts | 64° |
| 2026-05-07 17:44 | 42.35706 | -3.16359 | 37940 ft | 503 kts | 64° |
| 2026-05-07 17:44 | 42.38259 | -3.08892 | 37937 ft | 504 kts | 64° |
| 2026-05-07 17:45 | 42.41195 | -3.00282 | 37933 ft | 504 kts | 64° |
| 2026-05-07 17:45 | 42.44025 | -2.91589 | 37941 ft | 505 kts | 71° |
| 2026-05-07 17:46 | 42.45425 | -2.82304 | 37934 ft | 504 kts | 87° |
| 2026-05-07 17:46 | 42.45552 | -2.72820 | 37934 ft | 503 kts | 90° |
| 2026-05-07 17:47 | 42.45686 | -2.63343 | 37932 ft | 503 kts | 90° |
| 2026-05-07 17:47 | 42.45813 | -2.53946 | 37933 ft | 502 kts | 90° |
| 2026-05-07 17:48 | 42.45928 | -2.44474 | 37932 ft | 502 kts | 90° |
| 2026-05-07 17:48 | 42.46058 | -2.35004 | 37928 ft | 503 kts | 88° |
| 2026-05-07 17:49 | 42.47216 | -2.25656 | 37932 ft | 504 kts | 77° |
| 2026-05-07 17:49 | 42.48785 | -2.16396 | 37929 ft | 504 kts | 78° |
| 2026-05-07 17:50 | 42.50311 | -2.07183 | 37928 ft | 504 kts | 78° |
| 2026-05-07 17:50 | 42.51837 | -1.97913 | 37928 ft | 503 kts | 78° |
| 2026-05-07 17:51 | 42.53355 | -1.88652 | 37923 ft | 503 kts | 78° |
| 2026-05-07 17:51 | 42.54867 | -1.79382 | 37923 ft | 502 kts | 78° |
| 2026-05-07 17:52 | 42.56367 | -1.70131 | 37920 ft | 502 kts | 78° |
| 2026-05-07 17:52 | 42.57859 | -1.60879 | 37918 ft | 501 kts | 78° |
| 2026-05-07 17:53 | 42.59329 | -1.51715 | 37922 ft | 500 kts | 78° |
| 2026-05-07 17:53 | 42.60794 | -1.42536 | 37922 ft | 500 kts | 78° |
| 2026-05-07 17:54 | 42.62264 | -1.33273 | 37927 ft | 499 kts | 78° |
| 2026-05-07 17:54 | 42.63717 | -1.24060 | 37930 ft | 499 kts | 78° |
| 2026-05-07 17:55 | 42.65164 | -1.14842 | 37943 ft | 499 kts | 78° |
| 2026-05-07 17:55 | 42.66604 | -1.05608 | 37943 ft | 499 kts | 79° |
| 2026-05-07 17:56 | 42.68037 | -0.96372 | 37950 ft | 500 kts | 79° |
| 2026-05-07 17:56 | 42.69465 | -0.87117 | 37959 ft | 500 kts | 79° |
| 2026-05-07 17:57 | 42.70645 | -0.79421 | 37961 ft | 500 kts | 79° |
| 2026-05-07 17:57 | 42.72297 | -0.68594 | 37966 ft | 500 kts | 79° |
| 2026-05-07 17:58 | 42.73701 | -0.59339 | 37968 ft | 500 kts | 79° |
| 2026-05-07 17:58 | 42.75089 | -0.50125 | 37972 ft | 499 kts | 79° |
| 2026-05-07 17:59 | 42.76477 | -0.40865 | 37968 ft | 500 kts | 79° |
| 2026-05-07 17:59 | 42.77860 | -0.31586 | 37971 ft | 500 kts | 79° |
| 2026-05-07 18:00 | 42.79454 | -0.22368 | 37975 ft | 502 kts | 70° |
| 2026-05-07 18:00 | 42.82822 | -0.14060 | 37971 ft | 502 kts | 51° |
| 2026-05-07 18:01 | 42.87282 | -0.06730 | 37961 ft | 503 kts | 50° |
| 2026-05-07 18:01 | 42.91721 | 0.00659 | 37954 ft | 503 kts | 50° |
| 2026-05-07 18:02 | 42.98347 | 0.11748 | 37951 ft | 503 kts | 50° |
| 2026-05-07 18:03 | 43.02772 | 0.19168 | 37946 ft | 503 kts | 50° |
| 2026-05-07 18:03 | 43.07155 | 0.26539 | 37944 ft | 503 kts | 50° |
| 2026-05-07 18:04 | 43.11564 | 0.33971 | 37939 ft | 503 kts | 50° |
| 2026-05-07 18:04 | 43.15973 | 0.41422 | 37941 ft | 503 kts | 50° |
| 2026-05-07 18:05 | 43.20375 | 0.48879 | 37941 ft | 503 kts | 50° |
| 2026-05-07 18:05 | 43.24765 | 0.56337 | 37933 ft | 503 kts | 50° |
| 2026-05-07 18:06 | 43.29158 | 0.63815 | 37938 ft | 509 kts | 50° |
| 2026-05-07 18:06 | 43.33620 | 0.71433 | 37937 ft | 513 kts | 50° |
| 2026-05-07 18:07 | 43.38096 | 0.79095 | 37937 ft | 515 kts | 50° |
| 2026-05-07 18:07 | 43.42582 | 0.86796 | 37935 ft | 516 kts | 51° |
| 2026-05-07 18:08 | 43.47075 | 0.94528 | 37936 ft | 517 kts | 51° |
| 2026-05-07 18:08 | 43.51567 | 1.02279 | 37939 ft | 517 kts | 51° |
| 2026-05-07 18:09 | 43.56054 | 1.10041 | 37934 ft | 518 kts | 51° |
| 2026-05-07 18:09 | 43.59913 | 1.16735 | 37939 ft | 518 kts | 51° |
| 2026-05-07 18:10 | 43.64390 | 1.24520 | 37935 ft | 518 kts | 51° |
| 2026-05-07 18:10 | 43.68871 | 1.32331 | 37939 ft | 518 kts | 51° |
| 2026-05-07 18:11 | 43.73167 | 1.40329 | 37942 ft | 518 kts | 53° |
| 2026-05-07 18:11 | 43.77417 | 1.48403 | 37938 ft | 518 kts | 53° |
| 2026-05-07 18:12 | 43.81686 | 1.56457 | 37938 ft | 519 kts | 53° |
| 2026-05-07 18:12 | 43.85959 | 1.64511 | 37938 ft | 519 kts | 53° |
| 2026-05-07 18:13 | 43.90204 | 1.72533 | 37938 ft | 519 kts | 53° |
| 2026-05-07 18:13 | 43.94496 | 1.80668 | 37940 ft | 519 kts | 53° |
| 2026-05-07 18:14 | 43.98659 | 1.88777 | 37948 ft | 519 kts | 55° |
| 2026-05-07 18:14 | 44.02749 | 1.97067 | 37944 ft | 519 kts | 55° |
| 2026-05-07 18:15 | 44.06843 | 2.05346 | 37949 ft | 520 kts | 55° |
| 2026-05-07 18:15 | 44.10949 | 2.13634 | 37947 ft | 520 kts | 55° |
| 2026-05-07 18:16 | 44.15049 | 2.21928 | 37961 ft | 520 kts | 55° |
| 2026-05-07 18:16 | 44.19139 | 2.30226 | 37965 ft | 520 kts | 55° |
| 2026-05-07 18:17 | 44.23225 | 2.38542 | 37965 ft | 520 kts | 56° |
| 2026-05-07 18:17 | 44.27284 | 2.46824 | 37959 ft | 520 kts | 56° |
| 2026-05-07 18:18 | 44.31359 | 2.55165 | 37959 ft | 520 kts | 56° |
| 2026-05-07 18:18 | 44.35427 | 2.63515 | 37970 ft | 520 kts | 56° |
| 2026-05-07 18:19 | 44.39488 | 2.71875 | 37974 ft | 520 kts | 56° |
| 2026-05-07 18:19 | 44.43457 | 2.80068 | 37968 ft | 520 kts | 56° |
| 2026-05-07 18:20 | 44.47506 | 2.88452 | 37956 ft | 520 kts | 56° |
| 2026-05-07 18:20 | 44.51553 | 2.96854 | 37955 ft | 520 kts | 56° |
| 2026-05-07 18:21 | 44.55591 | 3.05262 | 37952 ft | 520 kts | 56° |
| 2026-05-07 18:21 | 44.59631 | 3.13700 | 37967 ft | 520 kts | 56° |
| 2026-05-07 18:22 | 44.63296 | 3.22386 | 37967 ft | 519 kts | 61° |
| 2026-05-07 18:22 | 44.66851 | 3.31231 | 37969 ft | 520 kts | 60° |
| 2026-05-07 18:23 | 44.69804 | 3.38586 | 37968 ft | 520 kts | 61° |
| 2026-05-07 18:23 | 44.73345 | 3.47451 | 37965 ft | 520 kts | 61° |
| 2026-05-07 18:24 | 44.77453 | 3.57783 | 37960 ft | 520 kts | 61° |
| 2026-05-07 18:24 | 44.80403 | 3.65225 | 37972 ft | 520 kts | 61° |
| 2026-05-07 18:25 | 44.83921 | 3.74126 | 37981 ft | 520 kts | 61° |
| 2026-05-07 18:25 | 44.87433 | 3.83040 | 37983 ft | 520 kts | 61° |
| 2026-05-07 18:26 | 44.90916 | 3.91910 | 37984 ft | 520 kts | 61° |
| 2026-05-07 18:26 | 44.94423 | 4.00868 | 37984 ft | 520 kts | 61° |
| 2026-05-07 18:27 | 44.97911 | 4.09808 | 37980 ft | 520 kts | 61° |
| 2026-05-07 18:27 | 45.01398 | 4.18771 | 37979 ft | 520 kts | 61° |
| 2026-05-07 18:28 | 45.04874 | 4.27736 | 37978 ft | 520 kts | 61° |
| 2026-05-07 18:28 | 45.08345 | 4.36718 | 37985 ft | 520 kts | 61° |
| 2026-05-07 18:29 | 45.11785 | 4.45650 | 37982 ft | 520 kts | 61° |
| 2026-05-07 18:29 | 45.15238 | 4.54642 | 37982 ft | 520 kts | 62° |
| 2026-05-07 18:30 | 45.18688 | 4.63660 | 37985 ft | 520 kts | 61° |
| 2026-05-07 18:30 | 45.22126 | 4.72673 | 37979 ft | 520 kts | 62° |
| 2026-05-07 18:31 | 45.25565 | 4.81718 | 37976 ft | 520 kts | 62° |
| 2026-05-07 18:31 | 45.28990 | 4.90758 | 37980 ft | 520 kts | 62° |
| 2026-05-07 18:32 | 45.32413 | 4.99821 | 37983 ft | 520 kts | 62° |
| 2026-05-07 18:32 | 45.35803 | 5.08827 | 37990 ft | 520 kts | 62° |
| 2026-05-07 18:33 | 45.39210 | 5.17906 | 37990 ft | 520 kts | 62° |
| 2026-05-07 18:33 | 45.42607 | 5.26991 | 37991 ft | 520 kts | 62° |
| 2026-05-07 18:34 | 45.45998 | 5.36088 | 37994 ft | 520 kts | 62° |
| 2026-05-07 18:34 | 45.49976 | 5.44674 | 37991 ft | 518 kts | 49° |
| 2026-05-07 18:35 | 45.55123 | 5.51816 | 37978 ft | 516 kts | 40° |
| 2026-05-07 18:35 | 45.60480 | 5.58636 | 37968 ft | 516 kts | 40° |
| 2026-05-07 18:36 | 45.65823 | 5.65490 | 37964 ft | 517 kts | 40° |
| 2026-05-07 18:36 | 45.71170 | 5.72360 | 37969 ft | 516 kts | 40° |
| 2026-05-07 18:37 | 45.76519 | 5.79239 | 37961 ft | 517 kts | 40° |
| 2026-05-07 18:37 | 45.81838 | 5.86074 | 37975 ft | 517 kts | 40° |
| 2026-05-07 18:38 | 45.87188 | 5.92970 | 37971 ft | 517 kts | 40° |
| 2026-05-07 18:38 | 45.92530 | 5.99878 | 37965 ft | 517 kts | 40° |
| 2026-05-07 18:39 | 45.97866 | 6.06796 | 37965 ft | 517 kts | 40° |
| 2026-05-07 18:39 | 46.03202 | 6.13732 | 37966 ft | 517 kts | 40° |
| 2026-05-07 18:40 | 46.08446 | 6.20834 | 37973 ft | 518 kts | 46° |
| 2026-05-07 18:40 | 46.12789 | 6.29139 | 37992 ft | 519 kts | 54° |
| 2026-05-07 18:41 | 46.16923 | 6.37615 | 37991 ft | 519 kts | 54° |
| 2026-05-07 18:41 | 46.21089 | 6.46152 | 37991 ft | 520 kts | 54° |
| 2026-05-07 18:42 | 46.25238 | 6.54701 | 37998 ft | 519 kts | 54° |
| 2026-05-07 18:42 | 46.29374 | 6.63254 | 38005 ft | 519 kts | 54° |
| 2026-05-07 18:43 | 46.33510 | 6.71838 | 38001 ft | 519 kts | 54° |
| 2026-05-07 18:43 | 46.37636 | 6.80417 | 38005 ft | 519 kts | 54° |
| 2026-05-07 18:44 | 46.41762 | 6.89026 | 38011 ft | 520 kts | 54° |
| 2026-05-07 18:44 | 46.45884 | 6.97655 | 38014 ft | 521 kts | 54° |
| 2026-05-07 18:45 | 46.49964 | 7.06224 | 38014 ft | 520 kts | 54° |
| 2026-05-07 18:45 | 46.54099 | 7.14934 | 38021 ft | 521 kts | 54° |
| 2026-05-07 18:46 | 46.58831 | 7.22723 | 38025 ft | 516 kts | 36° |
| 2026-05-07 18:46 | 46.65008 | 7.27882 | 38018 ft | 509 kts | 21° |
| 2026-05-07 18:47 | 46.71466 | 7.32197 | 38008 ft | 510 kts | 21° |
| 2026-05-07 18:47 | 46.77891 | 7.36545 | 38002 ft | 509 kts | 21° |
| 2026-05-07 18:48 | 46.82033 | 7.39649 | 38002 ft | 512 kts | 30° |
| 2026-05-07 18:48 | 46.84585 | 7.42496 | 37994 ft | 516 kts | 40° |
| 2026-05-07 18:49 | 46.88031 | 7.48465 | 37994 ft | 520 kts | 57° |
| 2026-05-07 18:49 | 46.91149 | 7.58010 | 37993 ft | 521 kts | 66° |
| 2026-05-07 18:50 | 46.94097 | 7.67688 | 38001 ft | 521 kts | 64° |
| 2026-05-07 18:50 | 46.97257 | 7.77229 | 38015 ft | 520 kts | 63° |
| 2026-05-07 18:51 | 47.00296 | 7.86216 | 38022 ft | 520 kts | 63° |
| 2026-05-07 18:51 | 47.03557 | 7.95877 | 38009 ft | 520 kts | 63° |
| 2026-05-07 18:52 | 47.06750 | 8.05387 | 38026 ft | 519 kts | 63° |
| 2026-05-07 18:52 | 47.09648 | 8.14052 | 38014 ft | 520 kts | 63° |
| 2026-05-07 18:53 | 47.12675 | 8.23133 | 38033 ft | 519 kts | 63° |
| 2026-05-07 18:53 | 47.15845 | 8.32676 | 38035 ft | 519 kts | 63° |
| 2026-05-07 18:54 | 47.18986 | 8.42168 | 38016 ft | 520 kts | 63° |
| 2026-05-07 18:54 | 47.22142 | 8.51739 | 38015 ft | 520 kts | 63° |
| 2026-05-07 18:55 | 47.25288 | 8.61318 | 38023 ft | 520 kts | 63° |
| 2026-05-07 18:55 | 47.28432 | 8.70927 | 38034 ft | 520 kts | 63° |
| 2026-05-07 18:56 | 47.31566 | 8.80542 | 38040 ft | 521 kts | 63° |
| 2026-05-07 18:56 | 47.34692 | 8.90167 | 38033 ft | 521 kts | 63° |
| 2026-05-07 18:57 | 47.37811 | 8.99804 | 38036 ft | 520 kts | 63° |
| 2026-05-07 18:57 | 47.40918 | 9.09446 | 38052 ft | 520 kts | 64° |
| 2026-05-07 18:58 | 47.44018 | 9.19100 | 38037 ft | 520 kts | 64° |
| 2026-05-07 18:58 | 47.47090 | 9.28704 | 38051 ft | 520 kts | 64° |
| 2026-05-07 18:59 | 47.50156 | 9.38328 | 37858 ft | 510 kts | 64° |
| 2026-05-07 18:59 | 47.51653 | 9.43042 | 37589 ft | 502 kts | 64° |
| 2026-05-07 18:59 | 47.53135 | 9.47715 | 37326 ft | 501 kts | 64° |
| 2026-05-07 18:59 | 47.54614 | 9.52385 | 37005 ft | 503 kts | 64° |
| 2026-05-07 19:00 | 47.56103 | 9.57096 | 36352 ft | 505 kts | 64° |
| 2026-05-07 19:00 | 47.57448 | 9.61899 | 35465 ft | 507 kts | 71° |
| 2026-05-07 19:00 | 47.58249 | 9.67004 | 34412 ft | 511 kts | 81° |
| 2026-05-07 19:00 | 47.58446 | 9.72274 | 33017 ft | 515 kts | 92° |
| 2026-05-07 19:01 | 47.58206 | 9.77562 | 31621 ft | 515 kts | 94° |
| 2026-05-07 19:01 | 47.57969 | 9.82836 | 30537 ft | 510 kts | 93° |
| 2026-05-07 19:01 | 47.57749 | 9.88033 | 29754 ft | 501 kts | 93° |
| 2026-05-07 19:01 | 47.57542 | 9.93062 | 29218 ft | 490 kts | 93° |
| 2026-05-07 19:02 | 47.57336 | 9.98051 | 28564 ft | 482 kts | 93° |
| 2026-05-07 19:02 | 47.57136 | 10.02867 | 27896 ft | 476 kts | 93° |
| 2026-05-07 19:02 | 47.56930 | 10.07737 | 27231 ft | 470 kts | 93° |
| 2026-05-07 19:02 | 47.56725 | 10.12538 | 26582 ft | 464 kts | 93° |
| 2026-05-07 19:03 | 47.56525 | 10.17163 | 25952 ft | 458 kts | 94° |
| 2026-05-07 19:03 | 47.56321 | 10.21841 | 25320 ft | 453 kts | 94° |
| 2026-05-07 19:03 | 47.56118 | 10.26459 | 24691 ft | 447 kts | 94° |
| 2026-05-07 19:03 | 47.55914 | 10.31039 | 24016 ft | 444 kts | 94° |
| 2026-05-07 19:04 | 47.55711 | 10.35559 | 23416 ft | 437 kts | 94° |
| 2026-05-07 19:04 | 47.55507 | 10.40027 | 22788 ft | 430 kts | 94° |
| 2026-05-07 19:04 | 47.55304 | 10.44404 | 22191 ft | 423 kts | 94° |
| 2026-05-07 19:04 | 47.55106 | 10.48673 | 21950 ft | 407 kts | 94° |
| 2026-05-07 19:05 | 47.55052 | 10.52775 | 21749 ft | 390 kts | 85° |
| 2026-05-07 19:05 | 47.55558 | 10.56664 | 21298 ft | 381 kts | 71° |
| 2026-05-07 19:05 | 47.56620 | 10.60174 | 20677 ft | 377 kts | 58° |
| 2026-05-07 19:05 | 47.57987 | 10.63447 | 20221 ft | 370 kts | 57° |
| 2026-05-07 19:06 | 47.59331 | 10.66703 | 20075 ft | 373 kts | 57° |
| 2026-05-07 19:06 | 47.61988 | 10.73260 | 19432 ft | 370 kts | 58° |
| 2026-05-07 19:06 | 47.63299 | 10.76528 | 18886 ft | 367 kts | 58° |
| 2026-05-07 19:07 | 47.64599 | 10.79774 | 18313 ft | 364 kts | 58° |
| 2026-05-07 19:07 | 47.65885 | 10.82989 | 17691 ft | 362 kts | 58° |
| 2026-05-07 19:07 | 47.67166 | 10.86187 | 17034 ft | 359 kts | 57° |
| 2026-05-07 19:07 | 47.68642 | 10.89151 | 16391 ft | 355 kts | 47° |
| 2026-05-07 19:08 | 47.70408 | 10.91655 | 16115 ft | 350 kts | 37° |
| 2026-05-07 19:08 | 47.72340 | 10.93885 | 16055 ft | 353 kts | 36° |
| 2026-05-07 19:08 | 47.74267 | 10.96148 | 16047 ft | 353 kts | 36° |
| 2026-05-07 19:08 | 47.76185 | 10.98427 | 16046 ft | 353 kts | 37° |
| 2026-05-07 19:09 | 47.78103 | 11.00715 | 16050 ft | 353 kts | 37° |
| 2026-05-07 19:09 | 47.80020 | 11.03002 | 16050 ft | 354 kts | 37° |
| 2026-05-07 19:09 | 47.81942 | 11.05295 | 16048 ft | 354 kts | 37° |
| 2026-05-07 19:09 | 47.83865 | 11.07591 | 16048 ft | 354 kts | 37° |
| 2026-05-07 19:10 | 47.85788 | 11.09887 | 16044 ft | 354 kts | 37° |
| 2026-05-07 19:10 | 47.87686 | 11.12152 | 16048 ft | 354 kts | 36° |
| 2026-05-07 19:10 | 47.89608 | 11.14439 | 16046 ft | 354 kts | 36° |
| 2026-05-07 19:10 | 47.91536 | 11.16732 | 16067 ft | 354 kts | 36° |
| 2026-05-07 19:11 | 47.93463 | 11.19025 | 16067 ft | 354 kts | 36° |
| 2026-05-07 19:11 | 47.94735 | 11.20541 | 16071 ft | 354 kts | 36° |
| 2026-05-07 19:11 | 47.96656 | 11.22833 | 16074 ft | 354 kts | 36° |
| 2026-05-07 19:11 | 47.98581 | 11.25132 | 16076 ft | 354 kts | 36° |
| 2026-05-07 19:12 | 48.00503 | 11.27430 | 16079 ft | 354 kts | 36° |
| 2026-05-07 19:12 | 48.02423 | 11.29729 | 16062 ft | 354 kts | 36° |
| 2026-05-07 19:12 | 48.04349 | 11.32037 | 16083 ft | 354 kts | 36° |
| 2026-05-07 19:12 | 48.06268 | 11.34338 | 16063 ft | 354 kts | 36° |
| 2026-05-07 19:13 | 48.08189 | 11.36644 | 16079 ft | 354 kts | 36° |
| 2026-05-07 19:13 | 48.10106 | 11.38947 | 16083 ft | 353 kts | 36° |
| 2026-05-07 19:13 | 48.12026 | 11.41256 | 15894 ft | 354 kts | 36° |
| 2026-05-07 19:13 | 48.13941 | 11.43560 | 15635 ft | 352 kts | 36° |
| 2026-05-07 19:14 | 48.15512 | 11.45454 | 15429 ft | 351 kts | 36° |
| 2026-05-07 19:14 | 48.17414 | 11.47746 | 15186 ft | 350 kts | 36° |
| 2026-05-07 19:14 | 48.19325 | 11.50051 | 14942 ft | 362 kts | 36° |
| 2026-05-07 19:14 | 48.21355 | 11.52497 | 14815 ft | 382 kts | 37° |
| 2026-05-07 19:15 | 48.23163 | 11.55406 | 14755 ft | 381 kts | 54° |
| 2026-05-07 19:15 | 48.24289 | 11.58983 | 14606 ft | 385 kts | 73° |
| 2026-05-07 19:15 | 48.24744 | 11.62975 | 14384 ft | 389 kts | 84° |
| 2026-05-07 19:15 | 48.24958 | 11.67015 | 14143 ft | 387 kts | 86° |
| 2026-05-07 19:16 | 48.25151 | 11.71032 | 13909 ft | 385 kts | 86° |
| 2026-05-07 19:16 | 48.25382 | 11.75034 | 13641 ft | 384 kts | 85° |
| 2026-05-07 19:16 | 48.25651 | 11.79012 | 13376 ft | 382 kts | 84° |
| 2026-05-07 19:16 | 48.25942 | 11.82970 | 13111 ft | 381 kts | 83° |
| 2026-05-07 19:17 | 48.26243 | 11.86908 | 12842 ft | 379 kts | 83° |
| 2026-05-07 19:17 | 48.26544 | 11.90832 | 12580 ft | 378 kts | 83° |
| 2026-05-07 19:17 | 48.26843 | 11.94745 | 12320 ft | 377 kts | 83° |
| 2026-05-07 19:17 | 48.27135 | 11.98592 | 12066 ft | 375 kts | 83° |
| 2026-05-07 19:18 | 48.27428 | 12.02479 | 11804 ft | 374 kts | 83° |
| 2026-05-07 19:18 | 48.27718 | 12.06347 | 11558 ft | 372 kts | 83° |
| 2026-05-07 19:18 | 48.28006 | 12.10212 | 11312 ft | 371 kts | 83° |
| 2026-05-07 19:18 | 48.28290 | 12.14056 | 11059 ft | 370 kts | 83° |
| 2026-05-07 19:19 | 48.28572 | 12.17885 | 10732 ft | 368 kts | 83° |
| 2026-05-07 19:19 | 48.28850 | 12.21673 | 10470 ft | 358 kts | 83° |
| 2026-05-07 19:19 | 48.29115 | 12.25298 | 10291 ft | 340 kts | 84° |
| 2026-05-07 19:19 | 48.29364 | 12.28723 | 10112 ft | 321 kts | 84° |
| 2026-05-07 19:20 | 48.29599 | 12.31968 | 9781 ft | 307 kts | 84° |
| 2026-05-07 19:20 | 48.29829 | 12.35140 | 9221 ft | 303 kts | 83° |
| 2026-05-07 19:20 | 48.30186 | 12.38220 | 8652 ft | 297 kts | 70° |
| 2026-05-07 19:20 | 48.31208 | 12.40835 | 8121 ft | 286 kts | 45° |
| 2026-05-07 19:21 | 48.32766 | 12.42520 | 7586 ft | 269 kts | 20° |
| 2026-05-07 19:21 | 48.34535 | 12.43003 | 7066 ft | 252 kts | 353° |
| 2026-05-07 19:21 | 48.36149 | 12.42263 | 6554 ft | 239 kts | 325° |
| 2026-05-07 19:21 | 48.37262 | 12.40533 | 6030 ft | 227 kts | 297° |
| 2026-05-07 19:22 | 48.37937 | 12.38433 | 5492 ft | 220 kts | 294° |
| 2026-05-07 19:22 | 48.38409 | 12.36288 | 5168 ft | 211 kts | 281° |
| 2026-05-07 19:22 | 48.38710 | 12.34112 | 5078 ft | 223 kts | 281° |
| 2026-05-07 19:22 | 48.38999 | 12.31794 | 5059 ft | 226 kts | 275° |
| 2026-05-07 19:23 | 48.38855 | 12.29466 | 5059 ft | 228 kts | 262° |
| 2026-05-07 19:23 | 48.38627 | 12.27109 | 5067 ft | 227 kts | 260° |
| 2026-05-07 19:23 | 48.38325 | 12.24765 | 5070 ft | 228 kts | 259° |
| 2026-05-07 19:23 | 48.38011 | 12.22435 | 5069 ft | 228 kts | 257° |
| 2026-05-07 19:24 | 48.37651 | 12.20110 | 5067 ft | 228 kts | 257° |
| 2026-05-07 19:24 | 48.37339 | 12.17798 | 5072 ft | 227 kts | 260° |
| 2026-05-07 19:24 | 48.37117 | 12.15437 | 5070 ft | 228 kts | 263° |
| 2026-05-07 19:24 | 48.36949 | 12.13147 | 5068 ft | 210 kts | 264° |
| 2026-05-07 19:25 | 48.36790 | 12.11081 | 5127 ft | 189 kts | 264° |
| 2026-05-07 19:25 | 48.36649 | 12.09207 | 5178 ft | 180 kts | 264° |
| 2026-05-07 19:25 | 48.36504 | 12.07272 | 5128 ft | 187 kts | 264° |
| 2026-05-07 19:25 | 48.36357 | 12.05345 | 4977 ft | 185 kts | 264° |
| 2026-05-07 19:26 | 48.36213 | 12.03422 | 4780 ft | 185 kts | 264° |
| 2026-05-07 19:26 | 48.36069 | 12.01540 | 4556 ft | 174 kts | 264° |
| 2026-05-07 19:26 | 48.35938 | 11.99799 | 4316 ft | 162 kts | 264° |
| 2026-05-07 19:26 | 48.35813 | 11.98147 | 4101 ft | 160 kts | 264° |
| 2026-05-07 19:27 | 48.35690 | 11.96516 | 3884 ft | 157 kts | 264° |
| 2026-05-07 19:27 | 48.35564 | 11.94862 | 3600 ft | 158 kts | 264° |
| 2026-05-07 19:27 | 48.35444 | 11.93281 | 3330 ft | 146 kts | 264° |
| 2026-05-07 19:27 | 48.35341 | 11.91767 | 3082 ft | 146 kts | 265° |
| 2026-05-07 19:28 | 48.35234 | 11.90270 | 2890 ft | 146 kts | 265° |
| 2026-05-07 19:28 | 48.35113 | 11.88763 | 2733 ft | 144 kts | 264° |
| 2026-05-07 19:28 | 48.34990 | 11.87288 | 2498 ft | 143 kts | 265° |
| 2026-05-07 19:28 | 48.34880 | 11.85787 | 2224 ft | 145 kts | 265° |
| 2026-05-07 19:29 | 48.34770 | 11.84295 | 2012 ft | 146 kts | 264° |
| 2026-05-07 19:29 | 48.34652 | 11.82805 | 1806 ft | 145 kts | 265° |
| 2026-05-07 19:29 | 48.34540 | 11.81311 | 1632 ft | 143 kts | 264° |
| 2026-05-07 19:29 | 48.34421 | 11.79811 | 1496 ft | 142 kts | 265° |
| 2026-05-07 19:30 | 48.34326 | 11.78453 | 1474 ft | 99 kts | 263° |
| 2026-05-07 19:30 | 48.34282 | 11.77818 | 1474 ft | 54 kts | 265° |
| 2026-05-07 19:30 | 48.34266 | 11.77262 | 1464 ft | 46 kts | 282° |
| 2026-05-07 19:30 | 48.34345 | 11.76965 | 1466 ft | 0 kts | 294° |
| 2026-05-07 19:31 | 48.34367 | 11.76889 | 1464 ft | 12 kts | 293° |
| 2026-05-07 19:32 | 48.34427 | 11.76727 | 1464 ft | 20 kts | 319° |
| 2026-05-07 19:32 | 48.34554 | 11.76691 | 1462 ft | 11 kts | 2° |
| 2026-05-07 19:32 | 48.34567 | 11.76698 | 1464 ft | 5 kts | 19° |
| 2026-05-07 19:32 | 48.34579 | 11.76787 | 1461 ft | 16 kts | 93° |
| 2026-05-07 19:33 | 48.34591 | 11.77014 | 1470 ft | 24 kts | 83° |
| 2026-05-07 19:33 | 48.34611 | 11.77267 | 1463 ft | 25 kts | 83° |
| 2026-05-07 19:33 | 48.34633 | 11.77524 | 1470 ft | 25 kts | 82° |
| 2026-05-07 19:33 | 48.34655 | 11.77782 | 1465 ft | 25 kts | 83° |
| 2026-05-07 19:34 | 48.34671 | 11.78045 | 1472 ft | 25 kts | 85° |
| 2026-05-07 19:34 | 48.34691 | 11.78304 | 1471 ft | 25 kts | 82° |
| 2026-05-07 19:34 | 48.34714 | 11.78566 | 1469 ft | 25 kts | 82° |
| 2026-05-07 19:34 | 48.34736 | 11.78830 | 1468 ft | 25 kts | 83° |
| 2026-05-07 19:35 | 48.34754 | 11.79095 | 1464 ft | 26 kts | 84° |
| 2026-05-07 19:35 | 48.34773 | 11.79349 | 1466 ft | 22 kts | 84° |
| 2026-05-07 19:35 | 48.34804 | 11.79545 | 1463 ft | 13 kts | 46° |
| 2026-05-07 19:35 | 48.34865 | 11.79559 | 1471 ft | 0 kts | 355° |
| 2026-05-07 19:36 | 48.34876 | 11.79558 | 1468 ft | 3 kts | 355° |
| 2026-05-07 19:36 | 48.34914 | 11.79553 | 1468 ft | 7 kts | 355° |
| 2026-05-07 19:36 | 48.34934 | 11.79550 | 1468 ft | 0 kts | 354° |
| 2026-05-07 19:36 | 48.34938 | 11.79548 | 1464 ft | 0 kts | 352° |
| 2026-05-07 19:38 | 48.34940 | 11.79548 | 1473 ft | 2 kts | 352° |
| 2026-05-07 19:38 | 48.35004 | 11.79533 | 1467 ft | 17 kts | 351° |
| 2026-05-07 19:38 | 48.35118 | 11.79507 | 1469 ft | 14 kts | 351° |
| 2026-05-07 19:38 | 48.35175 | 11.79435 | 1471 ft | 11 kts | 275° |
| 2026-05-07 19:39 | 48.35163 | 11.79353 | 1467 ft | 0 kts | 258° |